sensor_id;sensor_type;location;lat;lon;timestamp;pressure;altitude;pressure_sealevel;temperature;humidity
26865;BME280;40618;51.166;10.322;2023-07-20T00:01:14;97131.06;;;16.37;68.90
26865;BME280;40618;51.166;10.322;2023-07-20T00:03:40;97127.13;;;16.30;69.09
26865;BME280;40618;51.166;10.322;2023-07-20T00:06:06;97136.00;;;16.27;69.41
26865;BME280;40618;51.166;10.322;2023-07-20T00:08:31;97131.59;;;16.28;69.08
26865;BME280;40618;51.166;10.322;2023-07-20T00:10:57;97129.84;;;16.28;69.63
26865;BME280;40618;51.166;10.322;2023-07-20T00:13:23;97135.59;;;16.19;69.09
26865;BME280;40618;51.166;10.322;2023-07-20T00:15:50;97125.22;;;16.17;69.16
26865;BME280;40618;51.166;10.322;2023-07-20T00:18:16;97130.47;;;16.17;69.49
26865;BME280;40618;51.166;10.322;2023-07-20T00:20:42;97128.00;;;16.14;69.60
26865;BME280;40618;51.166;10.322;2023-07-20T00:23:07;97123.72;;;16.13;69.20
26865;BME280;40618;51.166;10.322;2023-07-20T00:25:33;97119.44;;;16.12;69.46
26865;BME280;40618;51.166;10.322;2023-07-20T00:27:59;97109.72;;;16.14;69.57
26865;BME280;40618;51.166;10.322;2023-07-20T00:30:25;97112.44;;;16.13;69.30
26865;BME280;40618;51.166;10.322;2023-07-20T00:32:50;97109.91;;;16.11;69.71
26865;BME280;40618;51.166;10.322;2023-07-20T00:35:16;97109.31;;;16.06;69.63
26865;BME280;40618;51.166;10.322;2023-07-20T00:37:41;97110.38;;;16.03;69.51
26865;BME280;40618;51.166;10.322;2023-07-20T00:40:07;97111.47;;;15.99;69.62
26865;BME280;40618;51.166;10.322;2023-07-20T00:42:33;97119.31;;;15.99;69.46
26865;BME280;40618;51.166;10.322;2023-07-20T00:44:59;97112.50;;;15.97;69.78
26865;BME280;40618;51.166;10.322;2023-07-20T00:47:26;97115.09;;;15.97;69.73
26865;BME280;40618;51.166;10.322;2023-07-20T00:49:52;97107.19;;;15.98;69.51
26865;BME280;40618;51.166;10.322;2023-07-20T00:52:20;97111.47;;;15.99;69.82
26865;BME280;40618;51.166;10.322;2023-07-20T00:54:47;97112.13;;;16.03;69.79
26865;BME280;40618;51.166;10.322;2023-07-20T00:57:15;97114.63;;;16.04;69.94
26865;BME280;40618;51.166;10.322;2023-07-20T00:59:41;97110.53;;;16.00;70.04
26865;BME280;40618;51.166;10.322;2023-07-20T01:02:07;97119.47;;;15.96;69.63
26865;BME280;40618;51.166;10.322;2023-07-20T01:04:33;97120.56;;;15.92;69.75
26865;BME280;40618;51.166;10.322;2023-07-20T01:07:10;97123.78;;;15.81;69.61
26865;BME280;40618;51.166;10.322;2023-07-20T01:09:48;97114.19;;;15.66;70.00
26865;BME280;40618;51.166;10.322;2023-07-20T01:12:29;97124.97;;;15.60;70.17
26865;BME280;40618;51.166;10.322;2023-07-20T01:15:05;97123.72;;;15.51;70.15
26865;BME280;40618;51.166;10.322;2023-07-20T01:17:33;97128.25;;;15.47;70.16
26865;BME280;40618;51.166;10.322;2023-07-20T01:19:59;97126.22;;;15.52;70.34
26865;BME280;40618;51.166;10.322;2023-07-20T01:28:53;97116.97;;;15.63;70.51
26865;BME280;40618;51.166;10.322;2023-07-20T01:31:32;97117.81;;;15.63;70.54
26865;BME280;40618;51.166;10.322;2023-07-20T01:34:02;97116.69;;;15.67;70.33
26865;BME280;40618;51.166;10.322;2023-07-20T01:36:30;97118.91;;;15.75;70.79
26865;BME280;40618;51.166;10.322;2023-07-20T01:38:59;97112.75;;;15.76;70.05
26865;BME280;40618;51.166;10.322;2023-07-20T01:41:26;97112.16;;;15.71;70.68
26865;BME280;40618;51.166;10.322;2023-07-20T01:43:52;97115.59;;;15.71;70.44
26865;BME280;40618;51.166;10.322;2023-07-20T01:46:18;97114.78;;;15.71;70.38
26865;BME280;40618;51.166;10.322;2023-07-20T01:48:44;97113.69;;;15.75;70.59
26865;BME280;40618;51.166;10.322;2023-07-20T01:51:09;97115.19;;;15.79;70.58
26865;BME280;40618;51.166;10.322;2023-07-20T01:53:35;97117.72;;;15.81;70.64
26865;BME280;40618;51.166;10.322;2023-07-20T01:56:00;97118.91;;;15.75;70.30
26865;BME280;40618;51.166;10.322;2023-07-20T01:58:26;97120.72;;;15.73;70.07
26865;BME280;40618;51.166;10.322;2023-07-20T02:00:52;97120.81;;;15.71;70.69
26865;BME280;40618;51.166;10.322;2023-07-20T02:03:17;97119.13;;;15.70;70.55
26865;BME280;40618;51.166;10.322;2023-07-20T02:05:43;97122.78;;;15.68;70.69
26865;BME280;40618;51.166;10.322;2023-07-20T02:08:09;97121.09;;;15.67;70.75
26865;BME280;40618;51.166;10.322;2023-07-20T02:10:35;97126.50;;;15.64;70.34
26865;BME280;40618;51.166;10.322;2023-07-20T02:13:00;97119.09;;;15.56;70.25
26865;BME280;40618;51.166;10.322;2023-07-20T02:15:26;97120.09;;;15.53;70.79
26865;BME280;40618;51.166;10.322;2023-07-20T02:17:53;97119.81;;;15.58;70.59
26865;BME280;40618;51.166;10.322;2023-07-20T02:20:19;97118.72;;;15.62;70.66
26865;BME280;40618;51.166;10.322;2023-07-20T02:22:44;97121.09;;;15.67;70.66
26865;BME280;40618;51.166;10.322;2023-07-20T02:25:10;97120.91;;;15.70;70.71
26865;BME280;40618;51.166;10.322;2023-07-20T02:27:37;97129.56;;;15.70;71.03
26865;BME280;40618;51.166;10.322;2023-07-20T02:30:04;97122.09;;;15.64;70.63
26865;BME280;40618;51.166;10.322;2023-07-20T02:32:31;97129.16;;;15.62;70.58
26865;BME280;40618;51.166;10.322;2023-07-20T02:34:57;97124.91;;;15.61;70.95
26865;BME280;40618;51.166;10.322;2023-07-20T02:37:23;97119.75;;;15.60;70.50
26865;BME280;40618;51.166;10.322;2023-07-20T02:39:49;97126.13;;;15.54;70.86
26865;BME280;40618;51.166;10.322;2023-07-20T02:42:15;97117.47;;;15.53;70.75
26865;BME280;40618;51.166;10.322;2023-07-20T02:44:41;97112.16;;;15.55;71.18
26865;BME280;40618;51.166;10.322;2023-07-20T02:47:06;97112.16;;;15.55;70.88
26865;BME280;40618;51.166;10.322;2023-07-20T02:49:32;97117.91;;;15.46;70.52
26865;BME280;40618;51.166;10.322;2023-07-20T02:51:58;97117.38;;;15.39;71.00
26865;BME280;40618;51.166;10.322;2023-07-20T02:54:23;97122.38;;;15.44;71.28
26865;BME280;40618;51.166;10.322;2023-07-20T02:56:49;97114.19;;;15.50;71.03
26865;BME280;40618;51.166;10.322;2023-07-20T02:59:14;97121.00;;;15.52;71.27
26865;BME280;40618;51.166;10.322;2023-07-20T03:01:40;97114.03;;;15.53;70.97
26865;BME280;40618;51.166;10.322;2023-07-20T03:04:07;97117.06;;;15.45;70.77
26865;BME280;40618;51.166;10.322;2023-07-20T03:06:35;97112.84;;;15.43;71.35
26865;BME280;40618;51.166;10.322;2023-07-20T03:09:02;97112.34;;;15.36;71.08
26865;BME280;40618;51.166;10.322;2023-07-20T03:11:29;97112.69;;;15.30;70.92
26865;BME280;40618;51.166;10.322;2023-07-20T03:13:54;97114.53;;;15.28;71.37
26865;BME280;40618;51.166;10.322;2023-07-20T03:16:21;97106.63;;;15.29;71.40
26865;BME280;40618;51.166;10.322;2023-07-20T03:18:50;97106.97;;;15.23;71.02
26865;BME280;40618;51.166;10.322;2023-07-20T03:21:16;97113.94;;;15.22;71.09
26865;BME280;40618;51.166;10.322;2023-07-20T03:23:42;97119.25;;;15.21;71.42
26865;BME280;40618;51.166;10.322;2023-07-20T03:26:07;97131.38;;;15.22;71.29
26865;BME280;40618;51.166;10.322;2023-07-20T03:28:37;97128.75;;;15.22;71.36
26865;BME280;40618;51.166;10.322;2023-07-20T03:31:04;97134.88;;;15.21;71.42
26865;BME280;40618;51.166;10.322;2023-07-20T03:33:31;97131.28;;;15.23;71.46
26865;BME280;40618;51.166;10.322;2023-07-20T03:35:57;97136.50;;;15.23;71.38
26865;BME280;40618;51.166;10.322;2023-07-20T03:38:24;97140.97;;;15.21;71.54
26865;BME280;40618;51.166;10.322;2023-07-20T03:40:53;97140.97;;;15.21;71.38
26865;BME280;40618;51.166;10.322;2023-07-20T03:43:19;97131.63;;;15.17;71.51
26865;BME280;40618;51.166;10.322;2023-07-20T03:45:46;97138.66;;;15.15;71.12
26865;BME280;40618;51.166;10.322;2023-07-20T03:48:15;97138.75;;;15.14;71.23
26865;BME280;40618;51.166;10.322;2023-07-20T03:50:41;97133.72;;;15.11;71.11
26865;BME280;40618;51.166;10.322;2023-07-20T03:53:09;97136.41;;;15.09;71.39
26865;BME280;40618;51.166;10.322;2023-07-20T03:55:34;97138.06;;;15.10;71.68
26865;BME280;40618;51.166;10.322;2023-07-20T03:58:01;97147.50;;;15.13;71.41
26865;BME280;40618;51.166;10.322;2023-07-20T04:00:27;97144.72;;;15.16;71.28
26865;BME280;40618;51.166;10.322;2023-07-20T04:02:52;97143.66;;;15.20;71.58
26865;BME280;40618;51.166;10.322;2023-07-20T04:05:18;97141.78;;;15.22;71.73
26865;BME280;40618;51.166;10.322;2023-07-20T04:07:44;97143.50;;;15.23;71.52
26865;BME280;40618;51.166;10.322;2023-07-20T04:10:09;97145.09;;;15.26;71.59
26865;BME280;40618;51.166;10.322;2023-07-20T04:12:35;97144.16;;;15.27;71.29
26865;BME280;40618;51.166;10.322;2023-07-20T04:15:01;97138.94;;;15.27;71.39
26865;BME280;40618;51.166;10.322;2023-07-20T04:17:28;97141.53;;;15.27;71.65
26865;BME280;40618;51.166;10.322;2023-07-20T04:19:54;97139.69;;;15.29;71.64
26865;BME280;40618;51.166;10.322;2023-07-20T04:22:19;97137.69;;;15.34;71.78
26865;BME280;40618;51.166;10.322;2023-07-20T04:24:45;97141.13;;;15.34;71.35
26865;BME280;40618;51.166;10.322;2023-07-20T04:27:11;97140.44;;;15.31;71.77
26865;BME280;40618;51.166;10.322;2023-07-20T04:29:36;97138.00;;;15.28;71.47
26865;BME280;40618;51.166;10.322;2023-07-20T04:32:02;97139.88;;;15.26;71.33
26865;BME280;40618;51.166;10.322;2023-07-20T04:34:27;97150.44;;;15.22;71.68
26865;BME280;40618;51.166;10.322;2023-07-20T04:36:53;97147.84;;;15.22;71.42
26865;BME280;40618;51.166;10.322;2023-07-20T04:39:18;97150.63;;;15.19;71.53
26865;BME280;40618;51.166;10.322;2023-07-20T04:41:44;97153.41;;;15.16;71.59
26865;BME280;40618;51.166;10.322;2023-07-20T04:44:10;97157.53;;;15.20;71.78
26865;BME280;40618;51.166;10.322;2023-07-20T04:46:35;97156.25;;;15.28;71.76
26865;BME280;40618;51.166;10.322;2023-07-20T04:49:01;97159.56;;;15.31;71.97
26865;BME280;40618;51.166;10.322;2023-07-20T04:51:27;97165.53;;;15.33;71.62
26865;BME280;40618;51.166;10.322;2023-07-20T04:53:55;97157.78;;;15.32;71.73
26865;BME280;40618;51.166;10.322;2023-07-20T04:56:21;97161.31;;;15.31;71.78
26865;BME280;40618;51.166;10.322;2023-07-20T04:58:48;97168.41;;;15.29;71.63
26865;BME280;40618;51.166;10.322;2023-07-20T05:01:14;97163.50;;;15.22;71.70
26865;BME280;40618;51.166;10.322;2023-07-20T05:03:39;97161.75;;;15.23;72.08
26865;BME280;40618;51.166;10.322;2023-07-20T05:06:05;97165.00;;;15.27;71.99
26865;BME280;40618;51.166;10.322;2023-07-20T05:08:31;97157.88;;;15.30;72.19
26865;BME280;40618;51.166;10.322;2023-07-20T05:10:56;97169.22;;;15.29;71.74
26865;BME280;40618;51.166;10.322;2023-07-20T05:13:22;97159.66;;;15.30;71.67
26865;BME280;40618;51.166;10.322;2023-07-20T05:15:51;97158.66;;;15.32;72.16
26865;BME280;40618;51.166;10.322;2023-07-20T05:18:18;97156.78;;;15.34;72.04
26865;BME280;40618;51.166;10.322;2023-07-20T05:20:48;97156.78;;;15.34;72.02
26865;BME280;40618;51.166;10.322;2023-07-20T05:23:14;97157.63;;;15.35;71.97
26865;BME280;40618;51.166;10.322;2023-07-20T05:25:42;97149.88;;;15.33;72.12
26865;BME280;40618;51.166;10.322;2023-07-20T05:28:08;97158.78;;;15.29;72.16
26865;BME280;40618;51.166;10.322;2023-07-20T05:30:33;97162.25;;;15.30;71.91
26865;BME280;40618;51.166;10.322;2023-07-20T05:32:59;97161.56;;;15.26;71.98
26865;BME280;40618;51.166;10.322;2023-07-20T05:35:26;97160.22;;;15.19;71.91
26865;BME280;40618;51.166;10.322;2023-07-20T05:37:52;97167.19;;;15.18;71.85
26865;BME280;40618;51.166;10.322;2023-07-20T05:40:17;97158.94;;;15.10;72.37
26865;BME280;40618;51.166;10.322;2023-07-20T05:42:45;97159.88;;;15.09;72.04
26865;BME280;40618;51.166;10.322;2023-07-20T05:45:12;97163.50;;;15.06;72.54
26865;BME280;40618;51.166;10.322;2023-07-20T05:47:37;97169.38;;;15.10;72.70
26865;BME280;40618;51.166;10.322;2023-07-20T05:50:03;97170.88;;;15.14;72.37
26865;BME280;40618;51.166;10.322;2023-07-20T05:52:29;97171.88;;;15.12;72.36
26865;BME280;40618;51.166;10.322;2023-07-20T05:54:55;97168.44;;;15.11;72.35
26865;BME280;40618;51.166;10.322;2023-07-20T05:57:21;97163.84;;;15.16;72.16
26865;BME280;40618;51.166;10.322;2023-07-20T05:59:46;97162.31;;;15.12;72.49
26865;BME280;40618;51.166;10.322;2023-07-20T06:02:12;97171.13;;;15.10;72.75
26865;BME280;40618;51.166;10.322;2023-07-20T06:04:39;97167.34;;;15.15;72.83
26865;BME280;40618;51.166;10.322;2023-07-20T06:07:05;97166.09;;;15.22;72.69
26865;BME280;40618;51.166;10.322;2023-07-20T06:09:32;97165.28;;;15.22;72.71
26865;BME280;40618;51.166;10.322;2023-07-20T06:11:59;97168.56;;;15.26;72.80
26865;BME280;40618;51.166;10.322;2023-07-20T06:14:24;97169.66;;;15.21;72.73
26865;BME280;40618;51.166;10.322;2023-07-20T06:16:50;97168.06;;;15.19;72.61
26865;BME280;40618;51.166;10.322;2023-07-20T06:19:16;97170.56;;;15.20;73.09
26865;BME280;40618;51.166;10.322;2023-07-20T06:21:41;97175.09;;;15.17;72.55
26865;BME280;40618;51.166;10.322;2023-07-20T06:24:07;97173.19;;;15.20;72.82
26865;BME280;40618;51.166;10.322;2023-07-20T06:26:33;97172.91;;;15.25;72.94
26865;BME280;40618;51.166;10.322;2023-07-20T06:29:04;97173.19;;;15.20;72.57
26865;BME280;40618;51.166;10.322;2023-07-20T06:31:32;97176.00;;;15.16;72.99
26865;BME280;40618;51.166;10.322;2023-07-20T06:33:58;97167.28;;;15.17;72.94
26865;BME280;40618;51.166;10.322;2023-07-20T06:36:24;97166.44;;;15.16;73.00
26865;BME280;40618;51.166;10.322;2023-07-20T06:38:51;97165.59;;;15.16;72.78
26865;BME280;40618;51.166;10.322;2023-07-20T06:41:18;97165.16;;;15.07;72.75
26865;BME280;40618;51.166;10.322;2023-07-20T06:43:44;97163.22;;;15.11;72.94
26865;BME280;40618;51.166;10.322;2023-07-20T06:46:10;97163.84;;;15.16;73.14
26865;BME280;40618;51.166;10.322;2023-07-20T06:48:36;97154.56;;;15.27;73.19
26865;BME280;40618;51.166;10.322;2023-07-20T06:51:01;97157.47;;;15.38;73.12
26865;BME280;40618;51.166;10.322;2023-07-20T06:53:28;97163.84;;;15.48;73.32
26865;BME280;40618;51.166;10.322;2023-07-20T06:55:54;97163.19;;;15.61;73.40
26865;BME280;40618;51.166;10.322;2023-07-20T06:58:24;97161.06;;;15.67;72.95
26865;BME280;40618;51.166;10.322;2023-07-20T07:00:50;97168.72;;;15.70;73.13
26865;BME280;40618;51.166;10.322;2023-07-20T07:03:16;97167.63;;;15.74;73.12
26865;BME280;40618;51.166;10.322;2023-07-20T07:05:42;97165.69;;;15.78;72.31
26865;BME280;40618;51.166;10.322;2023-07-20T07:08:10;97163.19;;;15.77;72.63
26865;BME280;40618;51.166;10.322;2023-07-20T07:10:36;97168.41;;;15.77;72.57
26865;BME280;40618;51.166;10.322;2023-07-20T07:13:02;97163.91;;;15.79;72.93
26865;BME280;40618;51.166;10.322;2023-07-20T07:15:28;97158.31;;;15.86;72.91
26865;BME280;40618;51.166;10.322;2023-07-20T07:17:54;97161.69;;;15.88;72.41
26865;BME280;40618;51.166;10.322;2023-07-20T07:20:21;97165.03;;;15.90;72.64
26865;BME280;40618;51.166;10.322;2023-07-20T07:22:47;97163.22;;;15.93;72.22
26865;BME280;40618;51.166;10.322;2023-07-20T07:25:12;97163.13;;;15.94;72.20
26865;BME280;40618;51.166;10.322;2023-07-20T07:27:38;97174.47;;;15.93;72.05
26865;BME280;40618;51.166;10.322;2023-07-20T07:30:04;97157.97;;;15.93;72.14
26865;BME280;40618;51.166;10.322;2023-07-20T07:32:31;97168.97;;;15.98;72.28
26865;BME280;40618;51.166;10.322;2023-07-20T07:34:56;97169.75;;;16.00;72.13
26865;BME280;40618;51.166;10.322;2023-07-20T07:37:23;97160.81;;;16.04;71.86
26865;BME280;40618;51.166;10.322;2023-07-20T07:39:49;97166.03;;;16.04;71.85
26865;BME280;40618;51.166;10.322;2023-07-20T07:42:15;97165.13;;;16.05;72.16
26865;BME280;40618;51.166;10.322;2023-07-20T07:44:40;97168.78;;;16.17;72.06
26865;BME280;40618;51.166;10.322;2023-07-20T07:47:06;97167.91;;;16.32;71.91
26865;BME280;40618;51.166;10.322;2023-07-20T07:49:32;97163.63;;;16.46;71.67
26865;BME280;40618;51.166;10.322;2023-07-20T07:51:58;97170.13;;;16.54;71.80
26865;BME280;40618;51.166;10.322;2023-07-20T07:54:23;97158.00;;;16.68;71.79
26865;BME280;40618;51.166;10.322;2023-07-20T07:56:50;97166.13;;;16.78;71.60
26865;BME280;40618;51.166;10.322;2023-07-20T07:59:16;97162.97;;;16.87;71.42
26865;BME280;40618;51.166;10.322;2023-07-20T08:01:42;97156.31;;;16.81;70.62
26865;BME280;40618;51.166;10.322;2023-07-20T08:04:07;97160.81;;;16.79;70.97
26865;BME280;40618;51.166;10.322;2023-07-20T08:06:33;97163.22;;;16.82;70.82
26865;BME280;40618;51.166;10.322;2023-07-20T08:08:59;97162.84;;;16.74;70.49
26865;BME280;40618;51.166;10.322;2023-07-20T08:11:25;97173.84;;;16.65;70.19
26865;BME280;40618;51.166;10.322;2023-07-20T08:13:51;97190.84;;;16.57;70.59
26865;BME280;40618;51.166;10.322;2023-07-20T08:16:16;97181.41;;;16.55;70.44
26865;BME280;40618;51.166;10.322;2023-07-20T08:18:43;97177.03;;;16.55;70.03
26865;BME280;40618;51.166;10.322;2023-07-20T08:21:10;97191.75;;;16.56;70.56
26865;BME280;40618;51.166;10.322;2023-07-20T08:23:36;97197.66;;;16.60;70.05
26865;BME280;40618;51.166;10.322;2023-07-20T08:26:01;97209.91;;;16.60;70.05
26865;BME280;40618;51.166;10.322;2023-07-20T08:28:27;97215.06;;;16.45;69.72
26865;BME280;40618;51.166;10.322;2023-07-20T08:30:54;97215.97;;;16.30;70.19
26865;BME280;40618;51.166;10.322;2023-07-20T08:33:20;97220.78;;;16.21;70.23
26865;BME280;40618;51.166;10.322;2023-07-20T08:35:46;97240.25;;;16.16;70.06
26865;BME280;40618;51.166;10.322;2023-07-20T08:38:12;97243.56;;;16.03;69.95
26865;BME280;40618;51.166;10.322;2023-07-20T08:40:43;97239.75;;;15.93;70.30
26865;BME280;40618;51.166;10.322;2023-07-20T08:43:11;97241.41;;;15.78;70.67
26865;BME280;40618;51.166;10.322;2023-07-20T08:45:39;97245.38;;;15.69;70.71
26865;BME280;40618;51.166;10.322;2023-07-20T08:48:07;97241.66;;;15.73;71.14
26865;BME280;40618;51.166;10.322;2023-07-20T08:50:34;97247.47;;;15.79;70.98
26865;BME280;40618;51.166;10.322;2023-07-20T08:53:01;97237.28;;;15.74;71.15
26865;BME280;40618;51.166;10.322;2023-07-20T08:55:29;97250.59;;;15.69;71.65
26865;BME280;40618;51.166;10.322;2023-07-20T08:57:56;97257.31;;;15.57;71.16
26865;BME280;40618;51.166;10.322;2023-07-20T09:00:26;97255.88;;;15.52;71.65
26865;BME280;40618;51.166;10.322;2023-07-20T09:02:54;97260.69;;;15.60;72.49
26865;BME280;40618;51.166;10.322;2023-07-20T09:05:23;97244.84;;;15.79;72.69
26865;BME280;40618;51.166;10.322;2023-07-20T09:07:51;97239.00;;;15.91;72.47
26865;BME280;40618;51.166;10.322;2023-07-20T09:10:20;97232.75;;;16.10;72.33
26865;BME280;40618;51.166;10.322;2023-07-20T09:12:46;97241.78;;;16.20;72.48
26865;BME280;40618;51.166;10.322;2023-07-20T09:15:12;97249.56;;;16.36;72.10
26865;BME280;40618;51.166;10.322;2023-07-20T09:17:38;97248.06;;;16.32;71.44
26865;BME280;40618;51.166;10.322;2023-07-20T09:20:08;97250.09;;;16.27;71.86
26865;BME280;40618;51.166;10.322;2023-07-20T09:22:38;97244.19;;;16.23;71.69
26865;BME280;40618;51.166;10.322;2023-07-20T09:25:14;97247.31;;;16.30;71.97
26865;BME280;40618;51.166;10.322;2023-07-20T09:27:43;97249.44;;;16.53;71.88
26865;BME280;40618;51.166;10.322;2023-07-20T09:30:11;97253.91;;;16.82;71.77
26865;BME280;40618;51.166;10.322;2023-07-20T09:32:43;97253.22;;;17.08;71.78
26865;BME280;40618;51.166;10.322;2023-07-20T09:35:18;97246.34;;;17.36;71.39
26865;BME280;40618;51.166;10.322;2023-07-20T09:37:58;97249.06;;;17.64;71.06
26865;BME280;40618;51.166;10.322;2023-07-20T09:40:28;97243.31;;;17.86;70.90
26865;BME280;40618;51.166;10.322;2023-07-20T09:42:55;97250.81;;;17.92;70.32
26865;BME280;40618;51.166;10.322;2023-07-20T09:45:49;97284.75;;;17.79;69.66
26865;BME280;40618;51.166;10.322;2023-07-20T09:48:15;97277.84;;;17.35;69.12
26865;BME280;40618;51.166;10.322;2023-07-20T09:50:43;97281.72;;;16.99;69.41
26865;BME280;40618;51.166;10.322;2023-07-20T09:53:16;97282.28;;;16.73;69.25
26865;BME280;40618;51.166;10.322;2023-07-20T09:55:44;97284.44;;;16.51;69.87
26865;BME280;40618;51.166;10.322;2023-07-20T09:58:11;97284.81;;;16.45;69.81
26865;BME280;40618;51.166;10.322;2023-07-20T10:00:38;97287.84;;;16.37;70.29
26865;BME280;40618;51.166;10.322;2023-07-20T10:03:10;97286.81;;;16.39;70.15
26865;BME280;40618;51.166;10.322;2023-07-20T10:05:41;97282.00;;;16.48;70.30
26865;BME280;40618;51.166;10.322;2023-07-20T10:08:12;97279.13;;;16.52;70.69
26865;BME280;40618;51.166;10.322;2023-07-20T10:10:41;97273.44;;;16.76;71.18
26865;BME280;40618;51.166;10.322;2023-07-20T10:13:20;97266.41;;;16.92;70.60
26865;BME280;40618;51.166;10.322;2023-07-20T10:15:50;97281.41;;;16.89;70.26
26865;BME280;40618;51.166;10.322;2023-07-20T10:19:11;97277.47;;;16.82;70.70
26865;BME280;40618;51.166;10.322;2023-07-20T10:21:56;97289.28;;;16.73;69.69
26865;BME280;40618;51.166;10.322;2023-07-20T10:24:29;97286.41;;;16.47;69.99
26865;BME280;40618;51.166;10.322;2023-07-20T10:26:57;97282.28;;;16.43;70.22
26865;BME280;40618;51.166;10.322;2023-07-20T10:29:23;97278.19;;;16.53;70.71
26865;BME280;40618;51.166;10.322;2023-07-20T10:31:50;97282.81;;;16.64;70.51
26865;BME280;40618;51.166;10.322;2023-07-20T10:34:16;97282.81;;;16.64;70.16
26865;BME280;40618;51.166;10.322;2023-07-20T10:36:46;97289.63;;;16.67;70.47
26865;BME280;40618;51.166;10.322;2023-07-20T10:39:25;97286.84;;;16.70;69.88
26865;BME280;40618;51.166;10.322;2023-07-20T10:42:02;97288.88;;;16.65;70.24
26865;BME280;40618;51.166;10.322;2023-07-20T10:44:31;97279.91;;;16.69;69.96
26865;BME280;40618;51.166;10.322;2023-07-20T10:47:01;97284.13;;;16.71;69.91
26865;BME280;40618;51.166;10.322;2023-07-20T10:49:33;97284.03;;;16.73;70.16
26865;BME280;40618;51.166;10.322;2023-07-20T10:52:04;97279.69;;;16.88;70.20
26865;BME280;40618;51.166;10.322;2023-07-20T10:56:57;97278.88;;;16.87;69.98
26865;BME280;40618;51.166;10.322;2023-07-20T10:59:43;97277.25;;;17.01;70.03
26865;BME280;40618;51.166;10.322;2023-07-20T11:02:12;97271.84;;;17.04;69.34
26865;BME280;40618;51.166;10.322;2023-07-20T11:04:47;97286.41;;;16.94;69.29
26865;BME280;40618;51.166;10.322;2023-07-20T11:07:35;97290.34;;;17.01;69.62
26865;BME280;40618;51.166;10.322;2023-07-20T11:10:14;97285.84;;;17.03;69.33
26865;BME280;40618;51.166;10.322;2023-07-20T11:12:41;97278.56;;;17.08;69.11
26865;BME280;40618;51.166;10.322;2023-07-20T11:15:07;97278.22;;;17.29;69.65
26865;BME280;40618;51.166;10.322;2023-07-20T11:17:33;97273.75;;;17.59;69.41
26865;BME280;40618;51.166;10.322;2023-07-20T11:20:02;97268.13;;;17.80;69.01
26865;BME280;40618;51.166;10.322;2023-07-20T11:22:30;97264.69;;;18.07;68.36
26865;BME280;40618;51.166;10.322;2023-07-20T11:24:57;97272.13;;;18.00;68.27
26865;BME280;40618;51.166;10.322;2023-07-20T11:27:23;97261.47;;;18.03;67.94
26865;BME280;40618;51.166;10.322;2023-07-20T11:29:49;97264.63;;;18.08;68.18
26865;BME280;40618;51.166;10.322;2023-07-20T11:32:25;97266.41;;;18.08;67.72
26865;BME280;40618;51.166;10.322;2023-07-20T11:34:50;97273.69;;;18.17;67.97
26865;BME280;40618;51.166;10.322;2023-07-20T11:37:19;97274.78;;;18.27;67.47
26865;BME280;40618;51.166;10.322;2023-07-20T11:39:45;97282.78;;;18.39;67.50
26865;BME280;40618;51.166;10.322;2023-07-20T11:42:11;97262.44;;;18.42;67.14
26865;BME280;40618;51.166;10.322;2023-07-20T11:44:37;97262.50;;;18.55;67.22
26865;BME280;40618;51.166;10.322;2023-07-20T11:47:11;97270.25;;;18.57;66.66
26865;BME280;40618;51.166;10.322;2023-07-20T11:49:41;97259.75;;;18.44;66.39
26865;BME280;40618;51.166;10.322;2023-07-20T11:52:13;97266.59;;;18.32;66.77
26865;BME280;40618;51.166;10.322;2023-07-20T11:54:41;97268.63;;;18.41;66.68
26865;BME280;40618;51.166;10.322;2023-07-20T11:57:19;97279.22;;;18.40;66.41
26865;BME280;40618;51.166;10.322;2023-07-20T11:59:55;97276.63;;;18.40;66.32
26865;BME280;40618;51.166;10.322;2023-07-20T12:02:26;97280.53;;;18.33;65.99
26865;BME280;40618;51.166;10.322;2023-07-20T12:04:54;97271.75;;;18.34;65.79
26865;BME280;40618;51.166;10.322;2023-07-20T12:07:21;97270.25;;;18.30;65.81
26865;BME280;40618;51.166;10.322;2023-07-20T12:10:06;97268.56;;;18.29;65.82
26865;BME280;40618;51.166;10.322;2023-07-20T12:12:43;97262.75;;;18.38;65.18
26865;BME280;40618;51.166;10.322;2023-07-20T12:15:29;97269.94;;;18.61;65.24
26865;BME280;40618;51.166;10.322;2023-07-20T12:17:58;97266.25;;;18.91;64.91
26865;BME280;40618;51.166;10.322;2023-07-20T12:20:30;97269.41;;;18.97;64.27
26865;BME280;40618;51.166;10.322;2023-07-20T12:23:10;97264.72;;;19.02;63.37
26865;BME280;40618;51.166;10.322;2023-07-20T12:25:41;97260.31;;;19.15;64.34
26865;BME280;40618;51.166;10.322;2023-07-20T12:28:13;97257.66;;;19.41;63.71
26865;BME280;40618;51.166;10.322;2023-07-20T12:30:41;97251.78;;;19.63;63.31
26865;BME280;40618;51.166;10.322;2023-07-20T12:33:08;97249.88;;;19.78;63.17
26865;BME280;40618;51.166;10.322;2023-07-20T12:35:34;97250.19;;;19.86;62.63
26865;BME280;40618;51.166;10.322;2023-07-20T12:38:00;97253.31;;;19.78;62.48
26865;BME280;40618;51.166;10.322;2023-07-20T12:40:26;97260.06;;;19.83;62.35
26865;BME280;40618;51.166;10.322;2023-07-20T12:42:51;97241.84;;;19.92;62.65
26865;BME280;40618;51.166;10.322;2023-07-20T12:45:17;97242.72;;;20.17;62.15
26865;BME280;40618;51.166;10.322;2023-07-20T12:47:43;97245.22;;;20.43;62.11
26865;BME280;40618;51.166;10.322;2023-07-20T12:50:12;97232.84;;;20.56;61.36
26865;BME280;40618;51.166;10.322;2023-07-20T12:52:39;97237.81;;;20.37;60.93
26865;BME280;40618;51.166;10.322;2023-07-20T12:55:06;97245.13;;;20.20;60.98
26865;BME280;40618;51.166;10.322;2023-07-20T12:57:37;97245.84;;;20.22;61.25
26865;BME280;40618;51.166;10.322;2023-07-20T13:00:04;97244.25;;;20.33;60.90
26865;BME280;40618;51.166;10.322;2023-07-20T13:02:33;97243.09;;;20.48;60.84